NWS Home NWS Lubbock West Texas Mesonet Latest Conditions as of 0326 PM, Fri Sep 22, 2017

Latest   N   C   S   Daily Sum   3hrΔ   24hrΔ   Soil Data 
Site Map   24hr Precip   72hr Precip   Google Plot


Station Time of Last Temp Dew Pt. RH Wind Direction Wind Speed Wind Gust Max Wind Max Temp Min Temp Max RH Min RH Altimeter 1HR Rain Today's Rain Solar Rad
Abernathy 5ENE  03:20 PM 87 65 51% SE2027 27 mph 179° @ 1055 AM 87 65 92 51 29.92" 0 0 779
Aiken 3WSW  03:20 PM 86 65 50% SE2327 30 mph 160° @ 0319 PM 86 65 90 50 29.93" 0 0 768
Amarillo 15NNW   03:20 PM 88 64 46% SE2227 34 mph 159° @ 0235 PM 93 70 80 40 29.86" 0 0 225
Amarillo 7SSE  03:20 PM 87 63 44% SE2226 31 mph 154° @ 0236 PM 89 68 82 42 29.91" 0 0 233
Amarillo 9NNE  03:20 PM 89 63 42% SE1923 33 mph 160° @ 0231 PM 90 70 80 42 29.87" 0 0 742
Amherst 1NE  03:20 PM 87 63 48% S1825 35 mph 153° @ 0245 PM 87 64 97 48 29.91" 0 0 771
Andrews 2E  03:20 PM 90 60 38% SE1625 29 mph 150° @ 0130 PM 90 69 81 37 29.90" 0 0 568
Anton 6SSW  03:20 PM 87 64 49% SE1925 28 mph 166° @ 1030 AM 88 67 91 49 29.91" 0 0 757
Aspermont 3NE  03:20 PM 95 61 33% S1423 27 mph 156° @ 0310 PM 96 73 80 33 29.86" 0 0 595
Big Bend NP - Persimmon Gap  03:20 PM 92 62 37% SE915 22 mph 36° @ 0850 AM 93 71 82 36 29.86" 0 0 795
Bootleg 11WNW  03:20 PM 88 59 37% S2224 28 mph 171° @ 0308 PM 89 63 94 37 29.94" 0 0 727
Brownfield 2S  03:20 PM 89 62 42% SE2227 30 mph 177° @ 1125 AM 90 68 85 42 29.90" 0 0 763
Canadian 6E  03:20 PM 90 64 43% SE2833 34 mph 164° @ 0250 PM 92 68 86 40 29.84" 0 0 754
Caprock Canyons State Park  03:20 PM 88 64 44% S2125 28 mph 156° @ 0303 PM 89 69 81 44 29.89" 0 0 657
Childress 2NNE  03:20 PM 92 62 39% SE1822 28 mph 169° @ 0245 PM 93 70 87 39 29.86" 0 0 408
Clarendon 2WSW  03:20 PM 89 63 44% S2131 31 mph 178° @ 0320 PM 89 67 80 44 29.89" 0 0 715
Claude 12SW  03:20 PM 86 62 45% SE1520 34 mph 191° @ 0310 AM 89 71 76 41 29.91" 0 0 303
Clyde 2WNW  03:20 PM 90 65 43% S1214 27 mph 167° @ 0130 PM 92 70 95 42 29.92" 0 0 504
Colorado City 5NW  03:20 PM 91 64 40% S1518 27 mph 183° @ 0219 PM 94 72 82 38 29.89" 0 0 526
Crowell 1E  03:20 PM 96 64 36% S2124 29 mph 181° @ 1139 AM 96 74 81 36 29.86" 0 0 852
Denver City 7WNW  03:20 PM 91 57 33% SE1626 26 mph 141° @ 0320 PM 91 63 94 33 29.90" 0 0 788
Dimmitt 2NE  03:20 PM 86 65 50% S1722 29 mph 149° @ 0125 PM 86 63 93 49 29.92" 0 0 713
Dora NM 2SW  03:20 PM 91 55 31% S1320 23 mph 160° @ 0300 PM 91 64 95 31 29.92" 0 0 758
Dozier 3W  03:20 PM 92 65 42% SE2125 28 mph 167° @ 0317 PM 92 68 88 42 29.88" 0 0 785
Endee NM 2SW  03:20 PM 93 57 30% S2023 35 mph 184° @ 0251 AM 94 67 86 29 29.88" 0 0 791
Floydada 2NNE  03:20 PM 87 60 41% S2126 30 mph 175° @ 1005 AM 87 66 87 41 29.92" 0 0 770
Fluvanna 3WNW  03:20 PM 90 59 37% SE1824 29 mph 173° @ 1020 AM 90 69 82 37 29.90" 0 0 625
Fort Chadbourne  03:20 PM 92 64 40% SE1520 26 mph 162° @ 1147 AM 93 72 89 38 29.90" 0 0 799
Fort Lancaster  03:20 PM 90 68 49% SE1623 28 mph 139° @ 0301 PM 90 75 82 49 29.89" 0 0 931
Fort Lewis CO  03:20 PM 63 39 41% S913 26 mph 187° @ 0257 PM 64 42 73 36 30.03" 0 0 292
Fort McKavett  03:20 PM 93 64 39% SE913 25 mph 160° @ 1039 AM 93 72 88 38 29.92" 0 0 735
Friona 2NE  03:20 PM 88 61 42% S1726 27 mph 174° @ 0220 PM 88 64 93 42 29.91" 0 0 752
Gail 2ESE  03:20 PM 89 62 43% SE1722 26 mph 173° @ 0120 PM 91 68 83 41 29.89" 0 0 703
Goodlett 3W  03:20 PM 94 60 34% SE1824 27 mph 146° @ 0225 PM 94 71 83 34 29.85" 0 0 719
Goodnight  03:20 PM 90 64 43% S2428 36 mph 159° @ 0313 PM 90 69 78 43 29.92" 0 0 730
Graham 5SSW  03:20 PM 87 62 44% S1928 31 mph 173° @ 1045 AM 88 68 82 43 29.90" 0 0 725
Guadalupe Mtns Natl Park  03:20 PM 83 44 25% S1114 24 mph 238° @ 0203 PM 87 67 57 18 30.03" 0 0 323
Guthrie 10WSW  03:20 PM 92 60 35% S1627 31 mph 155° @ 0305 PM 95 72 77 33 29.86" 0 0 602
Happy 1E  03:20 PM 88 65 47% S2427 32 mph 191° @ 0942 AM 88 66 88 46 29.92" 0 0 821
Hart 3N  03:20 PM 86 65 51% SE1627 28 mph 186° @ 1030 AM 86 64 93 51 29.92" 0 0 774
Haskell 1NW  03:20 PM 92 58 34% S1420 28 mph 176° @ 0110 PM 92 72 81 34 29.86" 0 0 738
Hereford 2NW  03:20 PM 87 59 41% S1626 29 mph 162° @ 0315 PM 87 65 84 41 29.90" 0 0 746
Jayton 1SSE  03:20 PM 93 59 33% S1623 27 mph 155° @ 0240 PM 94 72 78 32 29.87" 0 0 474
Junction 1SSW  03:20 PM 92 66 42% SE1115 25 mph 145° @ 1042 AM 94 73 87 40 29.90" 0 0 227
Knox City 3NW  03:20 PM 96 59 30% S2025 39 mph 173° @ 0210 PM 96 73 78 30 29.86" 0 0 703
Lake Alan Henry 1NW  03:20 PM 92 61 35% S1420 25 mph 187° @ 1018 AM 94 72 74 34 29.87" 0 0 277
Lamesa 2SE  03:20 PM 88 65 47% S1826 28 mph 177° @ 1045 AM 88 68 87 47 29.91" 0 0 690
Levelland 4S  03:20 PM 88 61 41% SE1723 28 mph 162° @ 1250 PM 88 66 87 41 29.91" 0 0 765
Lomax 1SSE  03:20 PM 89 65 45% SE1624 34 mph 165° @ 0936 AM 89 71 83 45 29.90" 0 0 357
Lubbock 3WNW TTU  03:20 PM 89 62 43% S1522 27 mph 167° @ 1045 AM 89 70 87 43 29.91" 0 0 780
McCamey 1SSW  03:20 PM 89 66 48% SE2227 32 mph 139° @ 1146 AM 89 73 84 46 29.88" 0 0 742
McLean 1E  03:20 PM 88 62 42% S2031 36 mph 174° @ 0250 PM 89 68 81 39 29.89" 0 0 654
Memphis 1NE  03:20 PM 92 63 40% SE1723 26 mph 148° @ 0315 PM 92 69 85 40 29.86" 0 0 640
Menard 2NW   03:20 PM 92 65 41% S1015 30 mph 185° @ 1226 PM 93 72 89 41 29.91" 0 0 781
Mertzon 3NNE  03:20 PM 90 65 44% S1317 27 mph 172° @ 1114 AM 90 73 86 43 29.91" 0 0 146
Morton 1ENE  03:20 PM 90 59 36% SE1521 25 mph 173° @ 1110 AM 91 66 89 36 29.91" 0 0 711
Muleshoe 2SSW  03:20 PM 89 59 38% S1623 27 mph 166° @ 0230 PM 89 67 92 38 29.90" 0 0 638
New Home  03:20 PM 89 64 44% S1417 28 mph 181° @ 1037 AM 89 68 87 44 29.92" 0 0 778
Northfield 1S  03:20 PM 93 63 39% S1724 32 mph 182° @ 1135 AM 93 68 85 39 29.86" 0 0 740
O'Donnell 1N  03:20 PM 87 60 42% S1623 27 mph 172° @ 1005 AM 87 68 83 42 29.91" 0 0 655
Odell 4ENE  03:20 PM 93 65 40% SE1721 26 mph 162° @ 0315 PM 93 73 87 39 29.87" 0 0 696
Olton 6S  03:20 PM 86 63 47% SE1925 30 mph 168° @ 1055 AM 86 66 88 47 29.91" 0 0 720
Paducah 10SW  03:20 PM 92 61 37% S1522 31 mph 181° @ 0210 PM 94 69 88 35 29.86" 0 0 207
Palo Duro Canyon SP Floor  03:20 PM 92 64 40% SE1923 28 mph 149° @ 0225 PM 93 73 72 38 29.86" 0 0 727
Palo Duro Canyon State Park Rim  03:20 PM 89 63 42% S1823 33 mph 195° @ 0309 AM 90 70 78 40 29.91" 0 0 777
Pampa 2E  03:20 PM 89 59 38% S2436 36 mph 160° @ 0320 PM 89 66 86 38 29.89" 0 0 698
Panhandle 1SSW  03:20 PM 89 60 38% S2429 34 mph 158° @ 0307 PM 89 67 85 37 29.91" 0 0 756
Plains 3N  03:20 PM 90 59 38% SE1824 28 mph 154° @ 1020 AM 91 65 95 37 29.91" 0 0 645
Plainview 1S  03:20 PM 86 65 51% S1624 27 mph 171° @ 0100 PM 86 65 93 51 29.91" 0 0 713
Post 1NE  03:20 PM 89 60 39% S1420 28 mph 175° @ 1010 AM 91 71 76 39 29.89" 0 0 426
Ralls 1SE  03:20 PM 88 62 42% SE1827 28 mph 185° @ 1025 AM 88 66 80 42 29.92" 0 0 721
Reese Center  03:20 PM 87 62 44% S1826 31 mph 173° @ 1035 AM 88 67 86 43 29.91" 0 0 780
Roaring Springs 3N  03:20 PM 89 66 49% S1520 30 mph 194° @ 1025 AM 89 64 95 48 29.89" 0 0 672
San Angelo 7NW  03:20 PM 91 60 36% SE1119 26 mph 145° @ 1205 PM 93 70 82 35 29.89" 0 0 428
Seagraves 1SW  03:20 PM 90 61 40% SE1622 26 mph 148° @ 1250 PM 90 66 91 40 29.90" 0 0 701
Seymour 3NW  03:20 PM 94 61 35% SE1723 28 mph 148° @ 0205 PM 94 72 87 35 29.86" 0 0 819
Sierra Blanca 1SSE  03:20 PM 92 48 22% S1316 23 mph 175° @ 0252 PM 93 68 58 22 29.93" 0 0 930
Silverton 7ESE  03:20 PM 87 63 45% SE2229 29 mph 147° @ 0320 PM 88 69 78 45 29.92" 0 0 709
Slaton 2NE  03:20 PM 89 62 41% SE1824 30 mph 167° @ 0915 AM 89 67 84 41 29.91" 0 0 711
Snyder 3E  03:20 PM 93 61 36% S1624 31 mph 165° @ 0200 PM 93 71 86 35 29.89" 0 0 731
Snyder 3SSW  03:20 PM 90 63 41% S1418 30 mph 174° @ 1001 AM 92 71 82 40 29.89" 0 0 770
Spur 1W  03:20 PM 93 59 33% S1322 27 mph 188° @ 0145 PM 93 68 82 33 29.87" 0 0 761
St. Lawrence 5SW  03:20 PM 87 64 47% S1923 34 mph 165° @ 0830 AM 87 70 84 47 29.92" 0 0 836
Stamford 5ESE  03:20 PM 94 65 38% S1619 27 mph 183° @ 1258 PM 94 73 84 38 29.87" 0 0 876
Sterling City 4WSW  03:20 PM 91 64 40% S1521 30 mph 151° @ 1003 AM 91 73 81 40 29.91" 0 0 747
Stinnett 1NNW  03:20 PM 91 59 34% S2227 38 mph 168° @ 0314 PM 91 72 74 34 29.87" 0 0 774
Sundown 8WSW  03:20 PM 90 61 39% SE1725 29 mph 167° @ 0205 PM 90 64 95 39 29.91" 0 0 655
Sweetwater 11SW   03:20 PM 90 64 43% S1923 29 mph 187° @ 0142 PM 91 71 90 42 29.92" 0 0 228
Tahoka 3NNE  03:20 PM 89 63 42% S1618 28 mph 161° @ 0934 AM 90 69 82 40 29.90" 0 0 675
Tarzan 2WNW  03:20 PM 90 66 46% SE1722 29 mph 153° @ 0315 PM 90 70 86 46 29.90" 0 0 821
Tatum NM 2SW  03:20 PM 91 56 31% S1518 25 mph 174° @ 1230 AM 91 65 91 31 29.92" 0 0 728
Throckmorton 1SW  03:20 PM 93 66 41% SE1216 23 mph 178° @ 1124 AM 95 71 92 39 29.88" 0 0 579
Tulia 2ENE  03:20 PM 87 66 52% SE2027 29 mph 171° @ 0115 PM 87 67 91 52 29.92" 0 0 680
Turkey 2WSW  03:20 PM 89 66 47% S1623 27 mph 155° @ 0250 PM 89 66 91 47 29.87" 0 0 593
Umbarger 3NNE  03:20 PM 88 65 46% S2327 34 mph 153° @ 0304 PM 90 67 85 43 29.92" 0 0 748
Vigo Park  03:20 PM 88 64 46% S2023 31 mph 174° @ 0139 AM 89 67 85 44 29.93" 0 0 747
Wall 2E  03:20 PM 94 64 38% SE1214 27 mph 177° @ 0936 AM 94 73 87 37 29.90" 0 0 846
Weinert 2NNE  02:05 PM 94 65 38% S1218 28 mph 152° @ 0113 PM 94 73 82 38 29.89" 0 0 892
Welch  03:20 PM 88 66 48% S2126 31 mph 156° @ 0302 PM 89 68 88 46 29.91" 0 0 782
White River Lake 6NW  03:20 PM 91 60 38% S1621 26 mph 155° @ 0250 PM 91 67 80 38 29.89" 0 0 836
Wolfforth 6SSW  03:20 PM 90 62 41% SE1723 29 mph 169° @ 1230 PM 90 68 85 41 29.91" 0 0 675

West Texas Mesonet Home   Site Map/Menu  NWS Lubbock Soil Data  Daily Summary Page  24hr Precip  72hr Precip  Google Plot